Time;durP1;ratioP1;P1;durP2;ratioP2;P2;SDS_P1;SDS_P2;PMS_P1;PMS_P2;Temp;Humidity;BMP_temperature;BMP_pressure;BME280_temperature;BME280_humidity;BME280_pressure;Samples;Min_cycle;Max_cycle;Signal;HPM_P1;HPM_P2
2022/05/30 00:00:25;;;;;;;2.00;1.10;;;;;;;11.54;100.00;100881.76;1890312;74;21016;-74
2022/05/30 00:02:53;;;;;;;3.72;1.82;;;;;;;11.42;100.00;100876.14;1868502;75;21148;-74
2022/05/30 00:05:23;;;;;;;2.00;1.17;;;;;;;11.40;100.00;100883.02;1839145;77;21075;-74
2022/05/30 00:07:51;;;;;;;3.80;1.27;;;;;;;11.42;100.00;100879.59;1868673;77;21482;-74
2022/05/30 00:10:23;;;;;;;6.72;1.35;;;;;;;11.46;100.00;100870.14;1868612;75;21018;-74
2022/05/30 00:12:51;;;;;;;3.27;1.25;;;;;;;11.47;100.00;100867.58;1868578;75;21074;-74
2022/05/30 00:15:20;;;;;;;3.92;2.45;;;;;;;11.28;100.00;100868.38;1848348;76;21147;-74
2022/05/30 00:17:48;;;;;;;5.12;1.82;;;;;;;11.30;100.00;100866.69;1868645;76;21039;-74
2022/05/30 00:20:16;;;;;;;3.40;1.35;;;;;;;11.31;100.00;100870.52;1868798;75;21011;-74
2022/05/30 00:22:43;;;;;;;3.72;1.37;;;;;;;11.28;100.00;100864.11;1868837;75;21151;-74
2022/05/30 00:25:11;;;;;;;2.37;1.32;;;;;;;11.22;100.00;100862.80;1868296;77;21116;-74
2022/05/30 00:27:38;;;;;;;6.83;1.70;;;;;;;11.27;100.00;100865.39;1868561;75;21027;-74
2022/05/30 00:30:08;;;;;;;2.60;1.50;;;;;;;11.17;100.00;100862.77;1868511;77;21091;-74
2022/05/30 00:32:36;;;;;;;2.95;1.30;;;;;;;11.12;100.00;100861.91;1868168;75;21540;-74
2022/05/30 00:35:05;;;;;;;5.55;1.35;;;;;;;11.34;100.00;100857.68;1868538;75;21538;-74
2022/05/30 00:37:32;;;;;;;3.80;1.00;;;;;;;11.13;100.00;100849.92;1867606;75;21040;-74
2022/05/30 00:40:00;;;;;;;4.78;1.15;;;;;;;11.18;100.00;100844.35;1869676;74;21091;-74
2022/05/30 00:42:28;;;;;;;2.30;1.40;;;;;;;11.05;100.00;100845.60;1854302;76;21058;-74
2022/05/30 00:44:55;;;;;;;1.85;1.20;;;;;;;10.96;100.00;100846.86;1852801;76;21523;-74
2022/05/30 00:47:25;;;;;;;3.30;1.22;;;;;;;11.06;100.00;100839.59;1852477;76;21115;-75
2022/05/30 00:49:53;;;;;;;5.03;1.55;;;;;;;11.00;100.00;100838.31;1854583;76;21093;-74
2022/05/30 00:52:29;;;;;;;2.15;1.27;;;;;;;10.97;100.00;100837.00;1854644;76;21530;-75
2022/05/30 00:55:09;;;;;;;5.42;2.65;;;;;;;11.06;100.00;100832.33;1853102;77;21510;-74
2022/05/30 00:57:37;;;;;;;4.00;1.32;;;;;;;10.80;100.00;100833.95;1877172;76;21036;-74
2022/05/30 01:00:17;;;;;;;5.50;1.90;;;;;;;10.82;100.00;100828.37;1835996;77;21109;-74
2022/05/30 01:02:46;;;;;;;4.22;1.82;;;;;;;10.76;100.00;100830.94;1852612;76;21119;-74
2022/05/30 01:08:01;;;;;;;4.78;1.30;;;;;;;10.97;100.00;100826.72;1841039;77;21525;-74
2022/05/30 01:10:29;;;;;;;2.42;1.40;;;;;;;10.93;100.00;100824.58;1854815;76;21110;-74
2022/05/30 01:12:58;;;;;;;5.97;1.65;;;;;;;10.84;100.00;100824.52;1862641;75;21053;-74
2022/05/30 01:15:28;;;;;;;5.15;1.60;;;;;;;10.83;100.00;100819.83;1835582;76;21081;-74
2022/05/30 01:18:16;;;;;;;4.17;2.12;;;;;;;10.79;100.00;100816.81;1854065;76;21122;-74
2022/05/30 01:21:20;;;;;;;4.72;1.98;;;;;;;10.93;100.00;100813.42;1854851;77;21062;-74
2022/05/30 01:23:59;;;;;;;10.03;2.98;;;;;;;10.77;100.00;100815.06;1854316;76;21483;-74
2022/05/30 01:26:42;;;;;;;3.72;1.60;;;;;;;10.83;100.00;100809.97;1855076;76;22426;-74
2022/05/30 01:29:16;;;;;;;2.02;1.50;;;;;;;10.80;100.00;100805.67;1853690;77;21137;-74
2022/05/30 01:31:43;;;;;;;5.00;2.25;;;;;;;10.71;100.00;100804.33;1833152;77;21131;-74
2022/05/30 01:34:11;;;;;;;2.20;1.77;;;;;;;10.72;100.00;100812.50;1852617;76;21540;-74
2022/05/30 01:36:39;;;;;;;4.00;1.87;;;;;;;10.57;100.00;100807.70;1855059;76;21056;-74
2022/05/30 01:39:06;;;;;;;7.22;1.75;;;;;;;10.54;100.00;100811.98;1858019;75;21011;-74
2022/05/30 01:41:34;;;;;;;2.67;1.47;;;;;;;10.50;100.00;100808.97;1881835;75;21540;-74
2022/05/30 01:44:02;;;;;;;2.75;1.85;;;;;;;10.49;100.00;100805.53;1866161;75;21153;-74
2022/05/30 01:46:29;;;;;;;2.80;1.47;;;;;;;10.68;100.00;100803.89;1855064;76;21098;-74
2022/05/30 01:48:57;;;;;;;1.85;1.30;;;;;;;10.75;100.00;100812.48;1854881;76;21029;-74
2022/05/30 01:51:24;;;;;;;5.33;2.33;;;;;;;10.69;100.00;100803.06;1852644;76;20991;-74
2022/05/30 01:53:52;;;;;;;4.70;1.95;;;;;;;10.54;100.00;100805.56;1852585;76;21415;-74
2022/05/30 01:56:20;;;;;;;6.60;1.60;;;;;;;10.56;100.00;100808.57;1855063;77;21461;-74
2022/05/30 01:58:48;;;;;;;5.92;1.85;;;;;;;10.57;100.00;100804.27;1854984;76;21131;-74
2022/05/30 02:01:26;;;;;;;4.58;1.40;;;;;;;10.42;100.00;100802.05;1852662;77;21090;-74
2022/05/30 02:03:54;;;;;;;3.00;1.55;;;;;;;10.64;100.00;100805.19;1852748;76;21076;-74
2022/05/30 02:06:23;;;;;;;2.17;1.60;;;;;;;10.56;100.00;100804.72;1853833;76;21493;-74
2022/05/30 02:08:51;;;;;;;5.72;2.00;;;;;;;10.54;100.00;100799.98;1861984;76;21035;-74
2022/05/30 02:11:19;;;;;;;3.77;1.62;;;;;;;10.52;100.00;100798.26;1874687;75;21028;-74
2022/05/30 02:13:47;;;;;;;2.77;1.50;;;;;;;10.54;100.00;100801.27;1854731;75;21102;-74
2022/05/30 02:19:04;;;;;;;5.50;2.02;;;;;;;10.54;100.00;100804.28;1852170;76;21106;-74
2022/05/30 02:21:34;;;;;;;3.40;2.10;;;;;;;10.44;100.00;100809.34;1853060;76;21048;-74
2022/05/30 02:24:03;;;;;;;3.85;2.20;;;;;;;10.37;100.00;100799.02;1854556;76;21134;-74
2022/05/30 02:26:31;;;;;;;3.45;2.25;;;;;;;10.47;100.00;100803.81;1854990;76;21475;-74
2022/05/30 02:28:59;;;;;;;4.45;1.98;;;;;;;10.49;100.00;100800.39;1853290;76;21116;-74
2022/05/30 02:31:28;;;;;;;2.25;1.65;;;;;;;10.43;100.00;100800.31;1852739;77;21028;-74
2022/05/30 02:36:44;;;;;;;5.33;1.87;;;;;;;10.31;100.00;100790.43;1852253;77;21144;-74
2022/05/30 02:39:13;;;;;;;3.12;1.62;;;;;;;10.28;100.00;100791.69;1853044;76;21059;-74
2022/05/30 02:41:42;;;;;;;3.90;1.72;;;;;;;10.24;100.00;100787.39;1883252;75;21081;-75
2022/05/30 02:44:10;;;;;;;2.75;1.65;;;;;;;10.37;100.00;100787.45;1839913;76;21077;-74
2022/05/30 02:46:38;;;;;;;3.22;1.92;;;;;;;10.27;100.00;100792.55;1887416;74;21574;-74
2022/05/30 02:49:05;;;;;;;2.20;1.57;;;;;;;10.27;100.00;100795.12;1887942;75;21046;-74
2022/05/30 02:51:33;;;;;;;2.58;1.72;;;;;;;10.10;100.00;100790.28;1851709;76;21102;-74
2022/05/30 02:54:01;;;;;;;5.03;3.22;;;;;;;10.17;100.00;100793.33;1868682;75;21061;-74
2022/05/30 02:56:28;;;;;;;3.27;1.60;;;;;;;10.10;100.00;100792.85;1867369;77;21206;-74
2022/05/30 02:59:00;;;;;;;3.67;1.65;;;;;;;10.10;100.00;100791.16;1851904;76;21169;-74
2022/05/30 03:01:31;;;;;;;6.40;3.05;;;;;;;10.15;100.00;100792.45;1853889;76;21114;-74
2022/05/30 03:03:58;;;;;;;4.65;1.45;;;;;;;10.23;100.00;100788.66;1854837;76;21449;-74
2022/05/30 03:06:26;;;;;;;8.68;2.90;;;;;;;10.29;100.00;100784.41;1854199;76;21061;-74
2022/05/30 03:08:53;;;;;;;2.75;1.92;;;;;;;10.27;100.00;100795.12;1852173;76;21155;-74
2022/05/30 03:11:21;;;;;;;4.58;2.17;;;;;;;10.22;100.00;100795.49;1859950;75;21199;-74
2022/05/30 03:13:48;;;;;;;5.53;2.08;;;;;;;10.23;100.00;100797.65;1851743;75;21022;-74
2022/05/30 03:16:16;;;;;;;3.40;2.10;;;;;;;10.11;100.00;100794.15;1840766;77;21218;-74
2022/05/30 03:18:44;;;;;;;3.22;1.60;;;;;;;10.16;100.00;100791.62;1848457;76;21052;-74
2022/05/30 03:21:12;;;;;;;5.67;1.57;;;;;;;10.18;100.00;100792.47;1833260;77;21046;-74
2022/05/30 03:23:40;;;;;;;3.72;1.75;;;;;;;10.08;100.00;100788.98;1852989;77;21011;-73
2022/05/30 03:26:08;;;;;;;3.22;1.60;;;;;;;10.02;100.00;100784.66;1853657;76;21154;-74
2022/05/30 03:28:38;;;;;;;3.55;1.72;;;;;;;10.20;100.00;100792.91;1852859;77;21038;-74
2022/05/30 03:31:10;;;;;;;2.85;1.60;;;;;;;10.10;100.00;100797.98;1853288;76;21063;-74
2022/05/30 03:33:37;;;;;;;2.00;1.40;;;;;;;10.12;100.00;100794.58;1855277;76;21079;-74
2022/05/30 03:36:07;;;;;;;5.62;1.82;;;;;;;10.13;100.00;100796.31;1854696;75;21152;-74
2022/05/30 03:38:34;;;;;;;2.47;1.77;;;;;;;10.17;100.00;100796.77;1831559;77;21111;-74
2022/05/30 03:41:02;;;;;;;5.15;1.92;;;;;;;10.09;100.00;100791.14;1852805;75;21092;-74
2022/05/30 03:43:29;;;;;;;2.30;1.50;;;;;;;10.01;100.00;100793.23;1855000;76;21098;-74
2022/05/30 03:45:57;;;;;;;6.25;1.80;;;;;;;9.96;100.00;100788.49;1854955;76;21518;-73
2022/05/30 03:48:24;;;;;;;3.22;1.70;;;;;;;10.12;100.00;100789.88;1852980;76;21097;-74
2022/05/30 03:50:51;;;;;;;2.35;1.47;;;;;;;10.16;100.00;100791.62;1852894;76;21009;-74
2022/05/30 03:53:19;;;;;;;4.17;1.92;;;;;;;10.15;100.00;100791.16;1854603;77;21032;-74
2022/05/30 03:55:47;;;;;;;7.15;2.55;;;;;;;10.08;100.00;100788.98;1855018;76;21234;-74
2022/05/30 03:58:15;;;;;;;4.55;2.40;;;;;;;10.05;100.00;100787.67;1853458;76;21495;-74
2022/05/30 04:00:44;;;;;;;1.98;1.27;;;;;;;9.99;100.00;100783.80;1852261;77;21110;-74
2022/05/30 04:03:12;;;;;;;2.33;1.70;;;;;;;10.05;100.00;100786.39;1854078;76;21048;-74
2022/05/30 04:05:40;;;;;;;4.62;1.47;;;;;;;10.01;100.00;100788.50;1866812;75;21537;-74
2022/05/30 04:08:09;;;;;;;5.87;2.17;;;;;;;10.06;100.00;100791.54;1854141;76;21147;-74
2022/05/30 04:10:36;;;;;;;5.90;2.85;;;;;;;10.08;100.00;100784.30;1852630;77;21058;-73
2022/05/30 04:13:07;;;;;;;5.83;2.70;;;;;;;10.10;100.00;100795.42;1856400;76;21204;-74
2022/05/30 04:15:35;;;;;;;3.62;1.22;;;;;;;10.05;100.00;100793.68;1819859;77;21140;-73
2022/05/30 04:18:03;;;;;;;2.92;1.50;;;;;;;10.00;100.00;100791.92;1854270;75;21042;-74
2022/05/30 04:20:31;;;;;;;2.47;1.20;;;;;;;10.16;100.00;100795.03;1852854;75;21144;-74
2022/05/30 04:22:59;;;;;;;2.37;1.20;;;;;;;10.11;100.00;100791.99;1852367;76;21107;-74
2022/05/30 04:25:27;;;;;;;2.92;1.10;;;;;;;10.19;100.00;100793.77;1855102;76;21107;-74
2022/05/30 04:27:55;;;;;;;4.58;1.55;;;;;;;10.22;100.00;100785.66;1829169;77;21044;-74
2022/05/30 04:30:23;;;;;;;7.28;1.67;;;;;;;10.15;100.00;100784.33;1854930;76;21153;-74
2022/05/30 04:32:51;;;;;;;3.47;1.42;;;;;;;10.10;100.00;100786.02;1854988;75;21023;-74
2022/05/30 04:35:19;;;;;;;7.40;1.85;;;;;;;10.06;100.00;100790.25;1852965;76;21081;-74
2022/05/30 04:37:47;;;;;;;2.85;1.72;;;;;;;9.97;100.00;100788.92;1852642;76;21048;-74
2022/05/30 04:40:18;;;;;;;4.47;1.52;;;;;;;10.03;100.00;100789.39;1853600;76;21032;-74
2022/05/30 04:42:45;;;;;;;3.67;1.45;;;;;;;10.02;100.00;100785.11;1849490;76;21582;-74
2022/05/30 04:45:14;;;;;;;3.50;1.40;;;;;;;9.92;100.00;100788.03;1847314;76;21102;-74
2022/05/30 04:47:41;;;;;;;3.22;1.50;;;;;;;9.94;100.00;100786.33;1828608;77;21036;-74
2022/05/30 04:50:16;;;;;;;4.75;2.60;;;;;;;10.08;100.00;100786.42;1848505;76;21044;-74
2022/05/30 04:52:43;;;;;;;2.22;1.45;;;;;;;10.10;100.00;100785.15;1827429;76;21532;-73
2022/05/30 04:55:12;;;;;;;3.02;1.42;;;;;;;9.92;100.00;100777.33;1829477;76;21082;-75
2022/05/30 04:57:44;;;;;;;3.80;1.47;;;;;;;9.94;100.00;100783.34;1820660;77;21034;-74
2022/05/30 05:00:17;;;;;;;2.50;1.50;;;;;;;10.09;100.00;100787.29;1852713;76;21126;-74
2022/05/30 05:02:44;;;;;;;3.50;2.10;;;;;;;10.17;100.00;100786.91;1822306;77;21523;-74
2022/05/30 05:05:12;;;;;;;8.48;2.30;;;;;;;10.30;100.00;100787.41;1854403;76;21070;-74
2022/05/30 05:08:02;;;;;;;3.37;1.70;;;;;;;10.17;100.00;100786.91;1844843;76;21475;-74
2022/05/30 05:10:39;;;;;;;9.90;2.50;;;;;;;10.37;100.00;100796.44;1841512;76;21011;-74
2022/05/30 05:13:07;;;;;;;3.80;1.52;;;;;;;10.53;100.00;100794.41;1843592;76;21126;-74
2022/05/30 05:15:34;;;;;;;5.92;1.57;;;;;;;10.69;100.00;100797.93;1832624;76;21712;-75
2022/05/30 05:18:02;;;;;;;8.65;2.58;;;;;;;10.77;100.00;100803.09;1857533;76;21073;-75
2022/05/30 05:20:30;;;;;;;3.30;1.50;;;;;;;10.90;100.00;100808.27;1848057;76;21015;-76
2022/05/30 05:22:58;;;;;;;3.83;1.30;;;;;;;11.15;100.00;100810.91;1826279;77;21107;-75
2022/05/30 05:25:25;;;;;;;3.58;1.32;;;;;;;11.02;100.00;100808.30;1856491;76;21715;-75
2022/05/30 05:27:53;;;;;;;7.17;1.57;;;;;;;11.03;100.00;100812.59;1852588;77;21040;-75
2022/05/30 05:30:20;;;;;;;2.12;1.50;;;;;;;11.13;100.00;100819.06;1837713;76;21038;-75
2022/05/30 05:32:48;;;;;;;4.87;1.57;;;;;;;11.13;100.00;100815.20;1846699;77;21013;-75
2022/05/30 05:35:16;;;;;;;2.22;1.50;;;;;;;10.92;100.00;100815.12;1848959;76;21101;-76
2022/05/30 05:37:44;;;;;;;2.50;1.40;;;;;;;11.09;100.00;100819.05;1845436;76;21195;-75
2022/05/30 05:40:12;;;;;;;6.17;1.37;;;;;;;10.97;100.00;100813.87;1850522;76;21598;-75
2022/05/30 05:42:40;;;;;;;1.85;1.07;;;;;;;10.97;100.00;100819.02;1863630;74;21173;-75
2022/05/30 05:45:09;;;;;;;3.08;1.37;;;;;;;11.16;100.00;100828.91;1873950;74;21214;-75
2022/05/30 05:47:36;;;;;;;8.28;1.75;;;;;;;11.21;100.00;100831.51;1855377;75;21080;-75
2022/05/30 05:50:04;;;;;;;2.85;1.50;;;;;;;11.20;100.00;100829.80;1851687;76;21146;-75
2022/05/30 05:52:32;;;;;;;3.52;1.37;;;;;;;11.26;100.00;100832.38;1846883;77;21143;-75
2022/05/30 05:55:00;;;;;;;3.60;1.67;;;;;;;11.33;100.00;100836.68;1849716;75;21232;-75
2022/05/30 05:57:28;;;;;;;1.98;1.47;;;;;;;11.39;100.00;100838.83;1847313;76;21006;-75
2022/05/30 05:59:55;;;;;;;2.83;1.17;;;;;;;11.41;100.00;100840.98;1846544;77;21669;-75
2022/05/30 06:02:23;;;;;;;3.62;1.50;;;;;;;11.47;100.00;100843.14;1849641;76;21643;-75
2022/05/30 06:04:52;;;;;;;10.75;1.60;;;;;;;11.52;100.00;100844.44;1847251;77;21145;-76
2022/05/30 06:07:20;;;;;;;1.32;1.22;;;;;;;11.56;100.00;100842.30;1848465;76;21163;-75
2022/05/30 06:09:48;;;;;;;2.27;1.30;;;;;;;11.66;100.00;100847.45;1846575;76;21051;-75
2022/05/30 06:12:16;;;;;;;2.77;1.20;;;;;;;11.76;100.00;100841.88;1850911;75;21134;-75
2022/05/30 06:14:43;;;;;;;3.92;1.40;;;;;;;11.67;100.00;100842.72;1844655;77;21149;-75
2022/05/30 06:17:11;;;;;;;2.45;1.45;;;;;;;11.77;100.00;100847.03;1847390;76;21165;-75
2022/05/30 06:19:38;;;;;;;6.00;2.10;;;;;;;11.88;100.00;100844.45;1847944;77;21115;-76
2022/05/30 06:22:06;;;;;;;2.80;1.12;;;;;;;12.00;100.00;100839.75;1848148;75;21613;-76
2022/05/30 06:24:34;;;;;;;2.15;1.60;;;;;;;11.99;100.00;100838.88;1845206;77;21129;-75
2022/05/30 06:27:04;;;;;;;1.35;1.07;;;;;;;12.19;100.00;100843.60;1847635;75;21149;-75
2022/05/30 06:29:31;;;;;;;5.60;1.60;;;;;;;12.25;100.00;100841.91;1866814;75;21126;-75
2022/05/30 06:31:59;;;;;;;4.12;1.35;;;;;;;12.27;100.00;100847.48;1850913;77;21189;-75
2022/05/30 06:34:27;;;;;;;5.80;2.62;;;;;;;12.41;100.00;100841.84;1848482;76;21236;-75
2022/05/30 06:36:54;;;;;;;2.22;1.30;;;;;;;12.37;100.00;100852.60;1848036;77;21504;-75
2022/05/30 06:39:22;;;;;;;2.02;1.20;;;;;;;12.74;100.00;100853.36;1846994;76;21536;-75
2022/05/30 06:41:49;;;;;;;4.20;1.32;;;;;;;13.18;100.00;100851.89;1846237;76;21132;-75
2022/05/30 06:44:17;;;;;;;2.72;1.70;;;;;;;13.64;100.00;100849.48;1847438;76;21131;-75
2022/05/30 06:46:44;;;;;;;2.55;1.02;;;;;;;14.13;100.00;100848.65;1836626;77;21505;-75
2022/05/30 06:49:12;;;;;;;4.05;1.80;;;;;;;14.68;100.00;100851.11;1816210;77;21041;-75
2022/05/30 06:51:40;;;;;;;3.67;1.15;;;;;;;15.14;100.00;100857.90;1816885;78;21049;-75
2022/05/30 06:54:08;;;;;;;1.82;1.20;;;;;;;15.50;100.00;100863.02;1817536;78;21151;-75
2022/05/30 06:56:38;;;;;;;2.58;1.10;;;;;;;15.74;100.00;100861.34;1817459;77;21074;-75
2022/05/30 06:59:06;;;;;;;7.03;1.07;;;;;;;15.99;100.00;100858.38;1817005;78;21668;-75
2022/05/30 07:01:35;;;;;;;4.67;1.30;;;;;;;15.90;100.00;100857.21;1817264;78;21470;-75
2022/05/30 07:04:03;;;;;;;2.15;1.22;;;;;;;16.06;100.00;100854.39;1817625;76;21040;-75
2022/05/30 07:06:33;;;;;;;2.55;1.20;;;;;;;16.64;100.00;100856.34;1807842;78;21148;-75
2022/05/30 07:09:01;;;;;;;1.37;1.00;;;;;;;16.43;100.00;100859.36;1815882;78;21157;-75
2022/05/30 07:11:29;;;;;;;1.12;0.80;;;;;;;16.65;100.00;100862.39;1814956;77;21109;-75
2022/05/30 07:13:57;;;;;;;2.08;1.52;;;;;;;16.72;100.00;100861.39;1816768;77;21101;-75
2022/05/30 07:16:25;;;;;;;4.30;1.32;;;;;;;16.89;100.00;100857.13;1815901;77;21737;-75
2022/05/30 07:18:53;;;;;;;3.60;1.37;;;;;;;16.92;100.00;100858.83;1816495;77;21191;-75
2022/05/30 07:21:21;;;;;;;5.50;1.00;;;;;;;17.39;100.00;100860.43;1816994;78;21175;-75
2022/05/30 07:23:50;;;;;;;3.12;0.90;;;;;;;17.26;100.00;100856.81;1816482;77;21019;-75
2022/05/30 07:26:22;;;;;;;2.00;0.82;;;;;;;17.16;100.00;100857.89;1807827;78;21109;-75
2022/05/30 07:28:55;;;;;;;1.10;0.80;;;;;;;17.19;100.00;100860.89;1816617;77;21150;-75
2022/05/30 07:31:21;;;;;;;1.10;0.60;;;;;;;17.21;100.00;100860.41;1816397;77;21074;-75
2022/05/30 07:33:49;;;;;;;1.95;0.78;;;;;;;17.62;100.00;100856.45;1816525;77;21107;-75
2022/05/30 07:36:22;;;;;;;5.35;0.93;;;;;;;17.56;100.00;100855.28;1802666;77;21097;-75
2022/05/30 07:38:51;;;;;;;5.23;1.80;;;;;;;17.22;100.00;100859.50;1817118;77;21055;-76
2022/05/30 07:41:19;;;;;;;2.95;0.70;;;;;;;17.22;100.00;100859.50;1817415;79;22170;-75
2022/05/30 07:43:47;;;;;;;1.82;0.95;;;;;;;17.50;100.00;100860.17;1833179;77;21230;-75
2022/05/30 07:46:16;;;;;;;1.00;0.80;;;;;;;17.62;100.00;100856.02;1851032;76;21077;-76
2022/05/30 07:48:44;;;;;;;2.45;0.80;;;;;;;17.92;100.00;100857.44;1851610;76;21153;-75
2022/05/30 07:51:13;;;;;;;1.07;0.80;;;;;;;18.07;100.00;100857.09;1842571;76;21070;-75
2022/05/30 07:53:45;;;;;;;1.30;0.70;;;;;;;18.17;100.00;100849.49;1841255;76;21044;-75
2022/05/30 07:56:16;;;;;;;3.47;0.80;;;;;;;18.16;100.00;100848.62;1834442;77;21068;-75
2022/05/30 07:58:43;;;;;;;1.90;1.22;;;;;;;18.20;100.00;100845.95;1853372;76;21045;-73
2022/05/30 08:01:16;;;;;;;2.00;0.70;;;;;;;18.56;100.00;100849.31;1849694;76;21177;-74
2022/05/30 08:03:44;;;;;;;2.00;0.97;;;;;;;18.34;100.00;100845.11;1851183;76;21103;-75
2022/05/30 08:06:15;;;;;;;2.85;1.00;;;;;;;17.76;100.00;100854.81;1854022;77;21141;-76
2022/05/30 08:08:44;;;;;;;1.85;0.90;;;;;;;17.76;100.00;100854.81;1853663;76;21132;-75
2022/05/30 08:11:12;;;;;;;1.55;0.75;;;;;;;17.44;100.00;100853.84;1845011;75;21565;-75
2022/05/30 08:13:40;;;;;;;2.72;0.80;;;;;;;17.42;100.00;100855.17;1842397;75;21124;-75
2022/05/30 08:16:12;;;;;;;2.27;0.90;;;;;;;16.28;100.00;100854.00;1847675;76;21170;-75
2022/05/30 08:18:37;;;;;;;2.60;0.98;;;;;;;17.09;100.00;100853.75;1850326;76;21161;-75
2022/05/30 08:21:05;;;;;;;1.98;1.17;;;;;;;16.44;100.00;100854.15;1848418;76;21141;-76
2022/05/30 08:23:33;;;;;;;2.33;0.90;;;;;;;17.22;100.00;100853.02;1848025;76;21178;-75
2022/05/30 08:26:01;;;;;;;1.20;0.80;;;;;;;17.81;100.00;100850.81;1848432;76;21079;-76
2022/05/30 08:28:29;;;;;;;3.37;0.95;;;;;;;18.21;100.00;100851.55;1849655;77;21061;-74
2022/05/30 08:30:56;;;;;;;1.85;0.93;;;;;;;18.31;100.00;100853.86;1848328;76;21172;-73
2022/05/30 08:33:24;;;;;;;4.53;1.07;;;;;;;18.51;100.00;100853.77;1848507;76;21141;-75
2022/05/30 08:36:06;;;;;;;1.45;0.60;;;;;;;18.83;100.00;100857.20;1850081;76;21077;-75
2022/05/30 08:38:36;;;;;;;1.40;0.80;;;;;;;18.75;100.00;100856.56;1851074;76;21119;-75
2022/05/30 08:43:52;;;;;;;4.58;0.80;;;;;;;19.02;100.00;100854.06;1857535;76;21156;-73
2022/05/30 08:46:38;;;;;;;1.27;0.85;;;;;;;19.02;100.00;100851.45;1859313;76;21127;-73
2022/05/30 08:49:14;;;;;;;1.98;0.82;;;;;;;19.19;100.00;100846.22;1853988;75;21474;-73
2022/05/30 08:51:48;;;;;;;2.65;1.02;;;;;;;18.93;100.00;100806.19;1853266;76;21042;-73
2022/05/30 08:54:28;;;;;;;1.37;0.82;;;;;;;19.15;100.00;100842.00;1852151;76;21132;-74
2022/05/30 08:56:57;;;;;;;0.90;0.65;;;;;;;19.34;95.90;100852.25;1856761;76;21706;-74
2022/05/30 08:59:27;;;;;;;1.27;0.80;;;;;;;19.34;95.90;100852.25;1852747;77;21113;-74
2022/05/30 09:02:03;;;;;;;1.75;0.70;;;;;;;19.24;93.54;100844.31;1852856;76;21013;-74
2022/05/30 09:04:47;;;;;;;1.82;0.65;;;;;;;19.54;93.53;100842.09;1835381;76;21612;-74
2022/05/30 09:07:27;;;;;;;2.92;0.75;;;;;;;19.62;88.50;100834.03;1849657;75;21065;-74
2022/05/30 09:10:16;;;;;;;4.00;1.10;;;;;;;19.59;85.76;100837.13;1860865;76;21072;-74
2022/05/30 09:12:52;;;;;;;2.40;0.85;;;;;;;19.58;93.12;100836.73;1865046;75;21096;-74
2022/05/30 09:15:25;;;;;;;1.52;0.75;;;;;;;19.50;86.02;100838.74;1844602;76;21131;-74
2022/05/30 09:17:59;;;;;;;2.60;1.77;;;;;;;19.70;87.68;100835.47;1835961;77;21016;-74
2022/05/30 09:20:25;;;;;;;;;;;;;;;19.83;88.96;100820.27;1855346;76;21460;-74
2022/05/30 09:22:53;;;;;;;1.90;1.00;;;;;;;19.15;83.20;100831.59;1853470;77;20133;-74
2022/05/30 09:28:12;;;;;;;1.00;0.60;;;;;;;19.81;83.51;100825.14;1881388;76;21152;-74
2022/05/30 09:31:05;;;;;;;0.93;0.72;;;;;;;20.05;81.59;100814.37;1878713;75;21011;-74
2022/05/30 09:33:39;;;;;;;1.35;0.70;;;;;;;20.27;78.25;100812.77;1869280;76;21052;-74
2022/05/30 09:36:19;;;;;;;3.33;1.07;;;;;;;20.01;74.86;100807.56;1852328;76;21540;-74
2022/05/30 09:39:00;;;;;;;1.07;0.40;;;;;;;19.87;72.26;100807.14;1853990;76;21469;-74
2022/05/30 09:41:43;;;;;;;1.25;0.68;;;;;;;20.17;69.31;100807.02;1853926;76;21047;-74
2022/05/30 09:44:24;;;;;;;2.60;0.88;;;;;;;20.59;64.83;100813.34;1861934;74;21081;-74
2022/05/30 09:46:54;;;;;;;3.45;1.20;;;;;;;20.63;69.46;100811.84;1882989;74;21202;-74
2022/05/30 09:49:25;;;;;;;1.57;0.88;;;;;;;20.74;65.42;100815.81;1859113;75;21626;-74
2022/05/30 09:52:04;;;;;;;1.25;0.50;;;;;;;20.88;67.11;100810.93;1853906;76;21048;-74
2022/05/30 09:54:32;;;;;;;1.20;0.50;;;;;;;20.98;65.79;100815.81;1854902;76;21645;-74
2022/05/30 09:57:21;;;;;;;2.35;0.60;;;;;;;20.75;68.90;100813.59;1854826;76;21053;-74
2022/05/30 09:59:51;;;;;;;0.70;0.40;;;;;;;20.98;63.60;100802.76;1840977;76;21499;-74
2022/05/30 10:02:24;;;;;;;2.50;0.90;;;;;;;20.90;64.24;100803.05;1852763;76;21073;-74
2022/05/30 10:05:07;;;;;;;3.85;0.90;;;;;;;20.87;65.61;100805.29;1853811;76;21099;-74
2022/05/30 10:07:36;;;;;;;0.50;0.50;;;;;;;21.12;64.36;100804.83;1825919;77;21015;-74
2022/05/30 10:10:22;;;;;;;1.55;0.88;;;;;;;20.89;65.54;100800.05;1833155;76;21052;-74
2022/05/30 10:12:58;;;;;;;1.62;0.70;;;;;;;21.02;67.73;100800.42;1846483;75;21532;-74
2022/05/30 10:15:38;;;;;;;1.67;0.75;;;;;;;20.91;65.10;100796.93;1833655;77;21713;-74
2022/05/30 10:18:17;;;;;;;2.65;0.80;;;;;;;21.22;67.53;100794.86;1835908;77;21573;-74
2022/05/30 10:21:04;;;;;;;2.87;1.02;;;;;;;21.63;64.82;100799.30;1855002;76;21497;-74
2022/05/30 10:29:41;;;;;;;2.08;0.55;;;;;;;21.56;65.61;100796.07;1794993;78;21086;-74
2022/05/30 10:32:28;;;;;;;0.95;0.62;;;;;;;21.73;65.05;100795.84;1807671;76;21124;-74
2022/05/30 10:35:07;;;;;;;1.12;0.60;;;;;;;21.57;66.72;100792.56;1846650;76;21106;-74
2022/05/30 10:37:55;;;;;;;1.20;0.50;;;;;;;21.95;62.93;100797.11;1847330;76;21138;-74
2022/05/30 10:40:52;;;;;;;1.55;1.22;;;;;;;21.38;68.05;100797.23;1845002;77;21048;-74
2022/05/30 10:43:29;;;;;;;3.47;0.93;;;;;;;21.38;63.36;100801.61;1847900;76;21577;-73
2022/05/30 10:46:02;;;;;;;1.12;0.60;;;;;;;21.16;69.87;100800.31;1858137;75;21138;-75
2022/05/30 10:48:32;;;;;;;2.70;1.57;;;;;;;21.70;61.81;100802.50;1846572;76;21068;-73
2022/05/30 10:51:06;;;;;;;0.98;0.75;;;;;;;22.01;63.18;100794.69;1845910;76;21026;-73
2022/05/30 10:53:59;;;;;;;1.65;0.60;;;;;;;22.47;62.82;100795.70;1847983;76;21470;-73
2022/05/30 10:56:33;;;;;;;1.05;0.60;;;;;;;22.32;61.02;100790.69;1852879;76;21049;-73
2022/05/30 10:59:19;;;;;;;1.27;0.65;;;;;;;21.65;65.91;100785.70;1851748;77;21048;-73
2022/05/30 11:01:59;;;;;;;1.27;0.60;;;;;;;22.24;63.06;100779.72;1854324;77;21173;-73
2022/05/30 11:04:52;;;;;;;5.10;0.70;;;;;;;22.08;65.42;100789.55;1851478;76;21079;-73
2022/05/30 11:07:49;;;;;;;1.65;0.40;;;;;;;21.81;66.08;100782.02;1854969;77;21477;-73
2022/05/30 11:10:28;;;;;;;0.70;0.40;;;;;;;22.21;64.43;100787.25;1855007;76;21037;-74
2022/05/30 11:13:18;;;;;;;0.50;0.50;;;;;;;22.29;65.52;100784.30;1862378;75;21093;-73
2022/05/30 11:15:51;;;;;;;0.85;0.60;;;;;;;22.20;64.65;100789.93;1836656;77;21111;-74
2022/05/30 11:18:29;;;;;;;;;;;;;;;22.32;64.57;100785.93;1837289;76;21059;-73
2022/05/30 11:21:20;;;;;;;1.57;0.55;;;;;;;21.71;64.83;100789.81;1836655;77;20153;-74
2022/05/30 11:23:49;;;;;;;1.90;0.53;;;;;;;21.57;67.92;100782.56;1854486;76;21119;-74
2022/05/30 11:26:40;;;;;;;1.10;0.60;;;;;;;21.59;69.94;100782.87;1850130;76;21057;-73
2022/05/30 11:29:35;;;;;;;1.57;0.70;;;;;;;21.61;69.39;100781.06;1852379;76;21106;-74
2022/05/30 11:32:28;;;;;;;2.80;1.00;;;;;;;22.01;65.89;100785.05;1833856;76;21119;-74
2022/05/30 11:35:10;;;;;;;3.00;0.68;;;;;;;22.13;64.72;100783.68;1830809;76;21483;-74
2022/05/30 11:37:46;;;;;;;0.62;0.47;;;;;;;21.81;65.38;100776.78;1852786;77;21095;-74
2022/05/30 11:40:35;;;;;;;1.60;0.70;;;;;;;21.08;73.45;100782.35;1856352;76;21114;-74
2022/05/30 11:43:17;;;;;;;1.02;0.68;;;;;;;21.44;73.12;100781.77;1844678;75;21140;-74
2022/05/30 11:46:23;;;;;;;5.25;1.07;;;;;;;21.63;68.03;100783.63;1854585;76;21153;-74
2022/05/30 11:48:56;;;;;;;1.60;0.60;;;;;;;21.46;68.41;100779.92;1840013;77;21129;-74
2022/05/30 11:51:30;;;;;;;;;;;;;;;20.87;77.26;100779.66;1835574;76;21621;-73
2022/05/30 11:54:14;;;;;;;;;;;;;;;21.14;76.96;100776.42;1794526;76;20180;-73
2022/05/30 11:57:18;;;;;;;1.72;0.90;;;;;;;20.94;76.37;100776.37;1831632;77;20187;-73
2022/05/30 11:59:48;;;;;;;1.90;0.68;;;;;;;21.16;76.67;100769.83;1831989;76;21222;-73